Aérodrome :
LOGIN :

S'inscrire | Disclaimer

   EN    FR    IT 

 










Légende :    VFR   VFR Marginal   IFR   IFR Intensif   IFR Très Intensif
Visi : 
Plafond : 
>= 8 km
>= 3000ft
5 à 8 km
1000 à 3000 ft
1500m à 5 km
500 à 1000 ft
800 à 1500m
200 à 500 ft
< 800m
< 200 ft
Symboles :   Orages  Brouillard  Fortes neiges  Fortes précipitations  Vent > 20 kt
SIGMETs :   Divers  Orages  Givrage  Turbulence  Onde Orograph.  Cendres Volcan.






- Altitude de l'aérodrome : 160 ft
- Code IATA : LRT


LFRH - Lorient Lann Bihoue

DERNIER METAR :
  • 151230Z AUTO 36011KT 310V030 9999 BKN022 BKN048 BKN060 09/05 Q1004 TEMPO SHRA SCT030CB BKN040

METARs EXPIRÉS :
  • 151200Z AUTO 36009KT 320V030 CAVOK 09/05 Q1004 TEMPO SHRA SCT030CB BKN040
  • 151130Z AUTO 35008KT 320V020 CAVOK 08/05 Q1004
  • 151100Z AUTO 36008KT 320V020 CAVOK 08/05 Q1004 NOSIG
  • 151030Z AUTO 34007KT 310V010 CAVOK 07/05 Q1004 NOSIG
  • 151000Z AUTO 35008KT CAVOK 06/05 Q1004 NOSIG

TAF TAF LFRH
Valide du 15 à 12h jusqu'au 16 à 12h UTC


151100Z 1512/1612 36005KT CAVOK
TEMPO 1512/1515 35005G15KT SHRA SCT030CB BKN040
BECMG 1519/1521 29012KT



MET'MAP, la Météo Aéronautique d'un coup d'oeil ! - Copyright ORBIFLY Décembre 2007 - Disclaimer

ORBIFLY MET'MAP TEAM :

Programmation & Développement : Alexandra Zaïnal
Conception & Développement : Baudouin d'Aumeries
Co-Programmation & Développement : Marc-Olivier Méhu
Soutien technique & logistique : Manuel Goepfert

Contact : metmap@orbifly.com




SOURCES & CREDITS :

   NOAA